Aviation Digital Data Service (ADDS)

Output produced by TAFs form (0551 UTC 14 February 2016)
found at http://aviationweather.gov/adds/tafs/
 
KVEL 140527Z 1406/1506 28003KT 4SM BR SKC 
     FM141100 00000KT 5SM BR SCT120 OVC200 
     FM142100 VRB05KT P6SM OVC100 
     FM150200 29005KT 5SM BR OVC100